sensor_id;sensor_type;location;lat;lon;timestamp;P1;durP1;ratioP1;P2;durP2;ratioP2
38427;SDS011;24211;49.980;19.776;2022-12-08T05:15:11;10.73;;;3.47;;
38427;SDS011;24211;49.980;19.776;2022-12-08T05:17:39;13.82;;;3.90;;
38427;SDS011;24211;49.980;19.776;2022-12-08T05:20:06;23.60;;;5.55;;
38427;SDS011;24211;49.980;19.776;2022-12-08T05:22:34;22.55;;;6.50;;
38427;SDS011;24211;49.980;19.776;2022-12-08T05:25:02;27.73;;;7.45;;
38427;SDS011;24211;49.980;19.776;2022-12-08T05:27:29;29.08;;;7.55;;
38427;SDS011;24211;49.980;19.776;2022-12-08T05:29:56;27.60;;;7.22;;
38427;SDS011;24211;49.980;19.776;2022-12-08T05:32:23;25.13;;;6.75;;
38427;SDS011;24211;49.980;19.776;2022-12-08T05:34:51;23.10;;;6.35;;
38427;SDS011;24211;49.980;19.776;2022-12-08T05:37:18;23.80;;;6.85;;
38427;SDS011;24211;49.980;19.776;2022-12-08T05:39:45;27.08;;;7.07;;
38427;SDS011;24211;49.980;19.776;2022-12-08T05:42:12;23.50;;;7.10;;
38427;SDS011;24211;49.980;19.776;2022-12-08T05:44:40;23.88;;;7.00;;
38427;SDS011;24211;49.980;19.776;2022-12-08T05:47:07;22.52;;;7.78;;
38427;SDS011;24211;49.980;19.776;2022-12-08T05:49:34;24.75;;;8.38;;
38427;SDS011;24211;49.980;19.776;2022-12-08T05:52:01;23.92;;;7.72;;
38427;SDS011;24211;49.980;19.776;2022-12-08T05:54:28;24.20;;;7.82;;
38427;SDS011;24211;49.980;19.776;2022-12-08T05:56:55;24.65;;;7.00;;
38427;SDS011;24211;49.980;19.776;2022-12-08T06:04:28;18.27;;;6.25;;
38427;SDS011;24211;49.980;19.776;2022-12-08T06:06:55;18.65;;;6.40;;
38427;SDS011;24211;49.980;19.776;2022-12-08T06:09:22;17.67;;;5.82;;
38427;SDS011;24211;49.980;19.776;2022-12-08T06:11:49;14.75;;;5.47;;
38427;SDS011;24211;49.980;19.776;2022-12-08T06:14:16;14.40;;;5.00;;
38427;SDS011;24211;49.980;19.776;2022-12-08T06:16:44;12.40;;;4.30;;
38427;SDS011;24211;49.980;19.776;2022-12-08T07:36:37;9.88;;;3.72;;
38427;SDS011;24211;49.980;19.776;2022-12-08T07:40:44;10.32;;;3.90;;
38427;SDS011;24211;49.980;19.776;2022-12-08T07:43:11;8.98;;;3.50;;
38427;SDS011;24211;49.980;19.776;2022-12-08T07:54:01;9.48;;;3.55;;
38427;SDS011;24211;49.980;19.776;2022-12-08T08:01:59;6.50;;;2.72;;
38427;SDS011;24211;49.980;19.776;2022-12-08T08:11:24;6.55;;;2.30;;
38427;SDS011;24211;49.980;19.776;2022-12-08T08:13:52;7.05;;;2.75;;
38427;SDS011;24211;49.980;19.776;2022-12-08T08:16:19;7.63;;;2.88;;
38427;SDS011;24211;49.980;19.776;2022-12-08T08:18:47;8.10;;;3.20;;
38427;SDS011;24211;49.980;19.776;2022-12-08T08:21:17;5.85;;;2.55;;
38427;SDS011;24211;49.980;19.776;2022-12-08T08:24:05;7.18;;;3.10;;
38427;SDS011;24211;49.980;19.776;2022-12-08T08:26:33;6.57;;;2.95;;
38427;SDS011;24211;49.980;19.776;2022-12-08T08:29:03;8.88;;;3.50;;
38427;SDS011;24211;49.980;19.776;2022-12-08T08:31:30;5.82;;;2.88;;
38427;SDS011;24211;49.980;19.776;2022-12-08T08:33:57;7.28;;;2.85;;
38427;SDS011;24211;49.980;19.776;2022-12-08T08:36:30;8.63;;;3.15;;
38427;SDS011;24211;49.980;19.776;2022-12-08T08:38:58;8.88;;;3.35;;
38427;SDS011;24211;49.980;19.776;2022-12-08T08:41:25;6.88;;;2.90;;
38427;SDS011;24211;49.980;19.776;2022-12-08T08:43:53;7.47;;;3.05;;
38427;SDS011;24211;49.980;19.776;2022-12-08T08:46:20;7.72;;;3.17;;
38427;SDS011;24211;49.980;19.776;2022-12-08T08:48:47;8.23;;;3.25;;
38427;SDS011;24211;49.980;19.776;2022-12-08T08:51:15;8.93;;;3.78;;
38427;SDS011;24211;49.980;19.776;2022-12-08T08:53:42;9.60;;;4.10;;
38427;SDS011;24211;49.980;19.776;2022-12-08T08:56:10;8.98;;;3.55;;
38427;SDS011;24211;49.980;19.776;2022-12-08T08:58:41;10.98;;;4.57;;
38427;SDS011;24211;49.980;19.776;2022-12-08T09:01:08;9.35;;;4.13;;
38427;SDS011;24211;49.980;19.776;2022-12-08T09:13:32;8.65;;;3.97;;
38427;SDS011;24211;49.980;19.776;2022-12-08T10:19:09;17.60;;;5.93;;
38427;SDS011;24211;49.980;19.776;2022-12-08T10:21:44;19.33;;;5.65;;
38427;SDS011;24211;49.980;19.776;2022-12-08T10:24:20;13.75;;;5.32;;
38427;SDS011;24211;49.980;19.776;2022-12-08T10:27:09;17.38;;;5.30;;
38427;SDS011;24211;49.980;19.776;2022-12-08T10:29:38;14.70;;;5.40;;
38427;SDS011;24211;49.980;19.776;2022-12-08T10:32:13;13.77;;;4.70;;
38427;SDS011;24211;49.980;19.776;2022-12-08T10:34:57;14.98;;;4.93;;
38427;SDS011;24211;49.980;19.776;2022-12-08T10:37:32;15.35;;;5.50;;
38427;SDS011;24211;49.980;19.776;2022-12-08T10:40:01;16.52;;;5.45;;
38427;SDS011;24211;49.980;19.776;2022-12-08T10:42:32;15.13;;;5.68;;
38427;SDS011;24211;49.980;19.776;2022-12-08T10:45:14;15.23;;;5.20;;
38427;SDS011;24211;49.980;19.776;2022-12-08T10:47:54;19.42;;;5.70;;
38427;SDS011;24211;49.980;19.776;2022-12-08T10:50:43;14.35;;;5.13;;
38427;SDS011;24211;49.980;19.776;2022-12-08T10:58:49;14.90;;;4.90;;
38427;SDS011;24211;49.980;19.776;2022-12-08T11:01:35;15.75;;;5.07;;
38427;SDS011;24211;49.980;19.776;2022-12-08T12:00:20;14.52;;;4.93;;
38427;SDS011;24211;49.980;19.776;2022-12-08T12:02:49;13.48;;;4.55;;
38427;SDS011;24211;49.980;19.776;2022-12-08T12:05:38;13.05;;;4.70;;
38427;SDS011;24211;49.980;19.776;2022-12-08T13:42:11;17.30;;;7.55;;
38427;SDS011;24211;49.980;19.776;2022-12-08T13:45:19;22.80;;;9.77;;
38427;SDS011;24211;49.980;19.776;2022-12-08T14:03:17;15.73;;;6.35;;
38427;SDS011;24211;49.980;19.776;2022-12-08T14:05:45;13.60;;;5.97;;
38427;SDS011;24211;49.980;19.776;2022-12-08T14:11:57;16.88;;;7.25;;
38427;SDS011;24211;49.980;19.776;2022-12-08T14:28:20;25.30;;;13.10;;
38427;SDS011;24211;49.980;19.776;2022-12-08T14:30:47;25.02;;;13.13;;
38427;SDS011;24211;49.980;19.776;2022-12-08T14:33:15;22.98;;;12.18;;
38427;SDS011;24211;49.980;19.776;2022-12-08T14:35:47;29.15;;;16.55;;
38427;SDS011;24211;49.980;19.776;2022-12-08T14:38:22;25.58;;;15.05;;
38427;SDS011;24211;49.980;19.776;2022-12-08T14:41:02;29.45;;;15.85;;
38427;SDS011;24211;49.980;19.776;2022-12-08T14:43:35;25.77;;;15.10;;
38427;SDS011;24211;49.980;19.776;2022-12-08T14:46:03;24.98;;;13.75;;
38427;SDS011;24211;49.980;19.776;2022-12-08T14:48:46;21.13;;;12.20;;
38427;SDS011;24211;49.980;19.776;2022-12-08T14:54:04;17.23;;;9.80;;
38427;SDS011;24211;49.980;19.776;2022-12-08T14:59:15;16.70;;;8.43;;
38427;SDS011;24211;49.980;19.776;2022-12-08T15:02:10;13.68;;;7.72;;
38427;SDS011;24211;49.980;19.776;2022-12-08T15:04:42;13.20;;;7.18;;
38427;SDS011;24211;49.980;19.776;2022-12-08T15:07:15;14.00;;;6.88;;
38427;SDS011;24211;49.980;19.776;2022-12-08T16:15:55;17.02;;;8.40;;
38427;SDS011;24211;49.980;19.776;2022-12-08T16:49:22;94.90;;;38.13;;
38427;SDS011;24211;49.980;19.776;2022-12-08T16:51:50;68.18;;;27.15;;
38427;SDS011;24211;49.980;19.776;2022-12-08T16:54:17;62.55;;;26.95;;
38427;SDS011;24211;49.980;19.776;2022-12-08T16:56:44;45.65;;;19.55;;
38427;SDS011;24211;49.980;19.776;2022-12-08T16:59:11;41.75;;;17.40;;
38427;SDS011;24211;49.980;19.776;2022-12-08T17:01:38;38.97;;;16.90;;
38427;SDS011;24211;49.980;19.776;2022-12-08T17:04:06;34.50;;;15.57;;
38427;SDS011;24211;49.980;19.776;2022-12-08T17:06:53;35.22;;;16.48;;
38427;SDS011;24211;49.980;19.776;2022-12-08T17:09:20;43.38;;;17.65;;
38427;SDS011;24211;49.980;19.776;2022-12-08T17:11:47;44.53;;;17.75;;
38427;SDS011;24211;49.980;19.776;2022-12-08T17:14:18;41.38;;;17.83;;
38427;SDS011;24211;49.980;19.776;2022-12-08T17:16:45;48.60;;;22.88;;
38427;SDS011;24211;49.980;19.776;2022-12-08T17:19:13;52.10;;;19.52;;
38427;SDS011;24211;49.980;19.776;2022-12-08T17:21:50;43.40;;;18.20;;
38427;SDS011;24211;49.980;19.776;2022-12-08T17:24:18;41.00;;;17.75;;
38427;SDS011;24211;49.980;19.776;2022-12-08T17:26:47;39.55;;;17.42;;
38427;SDS011;24211;49.980;19.776;2022-12-08T17:29:17;44.50;;;18.83;;
38427;SDS011;24211;49.980;19.776;2022-12-08T17:31:44;47.85;;;20.20;;
38427;SDS011;24211;49.980;19.776;2022-12-08T17:34:11;37.80;;;15.38;;
38427;SDS011;24211;49.980;19.776;2022-12-08T17:36:39;35.67;;;14.23;;
38427;SDS011;24211;49.980;19.776;2022-12-08T17:39:06;31.98;;;14.38;;
38427;SDS011;24211;49.980;19.776;2022-12-08T17:41:41;35.47;;;13.82;;
38427;SDS011;24211;49.980;19.776;2022-12-08T17:44:12;33.95;;;14.68;;
38427;SDS011;24211;49.980;19.776;2022-12-08T17:46:45;30.25;;;13.60;;
38427;SDS011;24211;49.980;19.776;2022-12-08T17:49:20;30.30;;;13.15;;
38427;SDS011;24211;49.980;19.776;2022-12-08T17:51:51;30.10;;;13.20;;
38427;SDS011;24211;49.980;19.776;2022-12-08T17:54:21;40.80;;;15.35;;
38427;SDS011;24211;49.980;19.776;2022-12-08T17:56:48;61.47;;;22.45;;
38427;SDS011;24211;49.980;19.776;2022-12-08T17:59:16;69.32;;;29.65;;
38427;SDS011;24211;49.980;19.776;2022-12-08T18:01:43;46.13;;;18.95;;
38427;SDS011;24211;49.980;19.776;2022-12-08T18:04:11;39.58;;;16.23;;
38427;SDS011;24211;49.980;19.776;2022-12-08T18:06:38;37.38;;;15.10;;
38427;SDS011;24211;49.980;19.776;2022-12-08T18:09:06;42.42;;;15.63;;
38427;SDS011;24211;49.980;19.776;2022-12-08T18:11:42;38.72;;;15.73;;
38427;SDS011;24211;49.980;19.776;2022-12-08T18:14:12;41.00;;;17.33;;
38427;SDS011;24211;49.980;19.776;2022-12-08T18:16:42;37.08;;;15.27;;
38427;SDS011;24211;49.980;19.776;2022-12-08T18:19:11;38.08;;;15.30;;
38427;SDS011;24211;49.980;19.776;2022-12-08T18:21:40;34.85;;;16.08;;
38427;SDS011;24211;49.980;19.776;2022-12-08T18:24:15;38.00;;;15.98;;
38427;SDS011;24211;49.980;19.776;2022-12-08T18:26:48;38.75;;;16.75;;
38427;SDS011;24211;49.980;19.776;2022-12-08T18:29:21;39.83;;;15.27;;
38427;SDS011;24211;49.980;19.776;2022-12-08T18:31:49;36.05;;;14.85;;
38427;SDS011;24211;49.980;19.776;2022-12-08T18:34:17;31.13;;;13.23;;
38427;SDS011;24211;49.980;19.776;2022-12-08T18:36:44;36.70;;;13.45;;
38427;SDS011;24211;49.980;19.776;2022-12-08T18:39:22;30.38;;;12.38;;
38427;SDS011;24211;49.980;19.776;2022-12-08T18:41:54;29.83;;;12.38;;
38427;SDS011;24211;49.980;19.776;2022-12-08T18:44:24;34.60;;;13.75;;
38427;SDS011;24211;49.980;19.776;2022-12-08T18:46:51;36.45;;;14.52;;
38427;SDS011;24211;49.980;19.776;2022-12-08T18:49:18;39.28;;;14.10;;
38427;SDS011;24211;49.980;19.776;2022-12-08T18:51:46;37.20;;;14.32;;
38427;SDS011;24211;49.980;19.776;2022-12-08T18:54:13;38.55;;;15.10;;
38427;SDS011;24211;49.980;19.776;2022-12-08T18:56:40;37.38;;;14.88;;
38427;SDS011;24211;49.980;19.776;2022-12-08T18:59:09;42.50;;;16.15;;
38427;SDS011;24211;49.980;19.776;2022-12-08T19:01:38;37.55;;;14.75;;
38427;SDS011;24211;49.980;19.776;2022-12-08T19:04:06;41.50;;;14.02;;
38427;SDS011;24211;49.980;19.776;2022-12-08T19:06:54;37.95;;;13.68;;
38427;SDS011;24211;49.980;19.776;2022-12-08T19:09:22;37.30;;;14.88;;
38427;SDS011;24211;49.980;19.776;2022-12-08T19:11:52;41.40;;;16.70;;
38427;SDS011;24211;49.980;19.776;2022-12-08T19:14:21;43.90;;;16.80;;
38427;SDS011;24211;49.980;19.776;2022-12-08T19:16:53;44.95;;;17.30;;
38427;SDS011;24211;49.980;19.776;2022-12-08T19:19:25;49.30;;;17.60;;
38427;SDS011;24211;49.980;19.776;2022-12-08T19:21:53;41.97;;;16.15;;
38427;SDS011;24211;49.980;19.776;2022-12-08T20:36:42;48.30;;;18.38;;
38427;SDS011;24211;49.980;19.776;2022-12-08T20:39:11;43.60;;;19.05;;
38427;SDS011;24211;49.980;19.776;2022-12-08T20:41:41;38.75;;;16.25;;
38427;SDS011;24211;49.980;19.776;2022-12-08T20:44:10;42.40;;;16.73;;
38427;SDS011;24211;49.980;19.776;2022-12-08T20:46:38;43.08;;;15.82;;
38427;SDS011;24211;49.980;19.776;2022-12-08T20:49:11;41.00;;;15.68;;
38427;SDS011;24211;49.980;19.776;2022-12-08T20:51:39;40.72;;;15.93;;
38427;SDS011;24211;49.980;19.776;2022-12-08T20:54:08;38.00;;;15.63;;
38427;SDS011;24211;49.980;19.776;2022-12-08T20:56:37;44.38;;;17.33;;
38427;SDS011;24211;49.980;19.776;2022-12-08T20:59:14;45.05;;;18.63;;
38427;SDS011;24211;49.980;19.776;2022-12-08T21:01:43;46.33;;;17.50;;
38427;SDS011;24211;49.980;19.776;2022-12-08T21:04:11;45.20;;;18.30;;
38427;SDS011;24211;49.980;19.776;2022-12-08T21:06:39;43.65;;;19.17;;
38427;SDS011;24211;49.980;19.776;2022-12-08T21:09:06;47.22;;;19.70;;
38427;SDS011;24211;49.980;19.776;2022-12-08T21:11:34;54.95;;;20.15;;
38427;SDS011;24211;49.980;19.776;2022-12-08T21:14:02;51.20;;;20.15;;
38427;SDS011;24211;49.980;19.776;2022-12-08T21:16:29;46.95;;;19.10;;
38427;SDS011;24211;49.980;19.776;2022-12-08T21:18:57;50.30;;;19.83;;
38427;SDS011;24211;49.980;19.776;2022-12-08T21:21:24;51.72;;;21.40;;
38427;SDS011;24211;49.980;19.776;2022-12-08T21:23:52;61.97;;;24.27;;
38427;SDS011;24211;49.980;19.776;2022-12-08T21:26:20;53.72;;;23.40;;
38427;SDS011;24211;49.980;19.776;2022-12-08T21:28:51;43.80;;;18.58;;
38427;SDS011;24211;49.980;19.776;2022-12-08T21:31:20;49.38;;;22.25;;
38427;SDS011;24211;49.980;19.776;2022-12-08T22:05:44;44.95;;;19.50;;
38427;SDS011;24211;49.980;19.776;2022-12-08T22:15:09;38.72;;;17.20;;
38427;SDS011;24211;49.980;19.776;2022-12-08T22:47:49;45.35;;;18.65;;
